Time;durP1;ratioP1;P1;durP2;ratioP2;P2;SDS_P1;SDS_P2;PMS_P1;PMS_P2;Temp;Humidity;BMP_temperature;BMP_pressure;BME280_temperature;BME280_humidity;BME280_pressure;Samples;Min_cycle;Max_cycle;Signal;HPM_P1;HPM_P2
2020/12/26 00:00:35;;;;;;;11.93;10.60;;;3.80;99.90;;;;;;5072527;28;21016;-67
2020/12/26 00:03:01;;;;;;;12.03;10.40;;;3.80;99.90;;;;;;5075656;28;20450;-66
2020/12/26 00:05:27;;;;;;;12.57;9.73;;;3.80;99.90;;;;;;5075634;28;20445;-66
2020/12/26 00:07:54;;;;;;;15.40;9.97;;;3.80;99.90;;;;;;5075458;28;20459;-67
2020/12/26 00:10:21;;;;;;;10.83;9.70;;;3.90;99.90;;;;;;5075220;28;20504;-68
2020/12/26 00:12:48;;;;;;;12.60;10.10;;;3.80;99.90;;;;;;5075276;28;20966;-67
2020/12/26 00:15:14;;;;;;;12.63;10.93;;;3.80;99.90;;;;;;5075385;28;20479;-67
2020/12/26 00:17:41;;;;;;;12.50;10.70;;;3.80;99.90;;;;;;5075072;28;20836;-66
2020/12/26 00:20:07;;;;;;;10.53;9.30;;;3.80;99.90;;;;;;5075054;28;20443;-67
2020/12/26 00:22:34;;;;;;;13.20;9.70;;;3.80;99.90;;;;;;5075328;28;20989;-68
2020/12/26 00:25:01;;;;;;;14.33;11.00;;;3.80;99.90;;;;;;5075219;28;20441;-67
2020/12/26 00:27:27;;;;;;;12.53;10.07;;;3.70;99.90;;;;;;5075042;28;20463;-67
2020/12/26 00:29:54;;;;;;;10.30;9.20;;;3.70;99.90;;;;;;5074978;28;20439;-68
2020/12/26 00:32:21;;;;;;;14.43;11.57;;;3.70;99.90;;;;;;5074890;28;20477;-66
2020/12/26 00:34:47;;;;;;;12.43;11.13;;;3.70;99.90;;;;;;5074834;28;20835;-66
2020/12/26 00:37:16;;;;;;;12.70;11.20;;;3.70;99.90;;;;;;5074862;28;20466;-67
2020/12/26 00:39:42;;;;;;;15.40;10.87;;;3.60;99.90;;;;;;5074697;28;20819;-67
2020/12/26 00:42:09;;;;;;;10.60;9.80;;;3.70;99.90;;;;;;5074846;28;20443;-67
2020/12/26 00:44:35;;;;;;;11.83;10.73;;;3.70;99.90;;;;;;5074920;28;20435;-67
2020/12/26 00:47:02;;;;;;;11.73;10.50;;;3.70;99.90;;;;;;5074628;28;20471;-65
2020/12/26 00:49:28;;;;;;;13.57;10.90;;;3.60;99.90;;;;;;5074777;28;20802;-65
2020/12/26 00:51:54;;;;;;;12.43;9.93;;;3.60;99.90;;;;;;5074486;28;20861;-65
2020/12/26 00:54:21;;;;;;;12.40;11.10;;;3.60;99.90;;;;;;5074603;28;20798;-68
2020/12/26 00:56:47;;;;;;;13.60;12.43;;;3.60;99.90;;;;;;5074370;28;20951;-68
2020/12/26 00:59:13;;;;;;;12.03;11.00;;;3.60;99.90;;;;;;5074603;28;20456;-67
2020/12/26 01:01:39;;;;;;;11.57;10.57;;;3.60;99.90;;;;;;5074201;28;20439;-67
2020/12/26 01:04:07;;;;;;;13.07;11.77;;;3.60;99.90;;;;;;5074446;28;20443;-67
2020/12/26 01:06:33;;;;;;;17.93;12.10;;;3.60;99.90;;;;;;5074742;28;20466;-69
2020/12/26 01:08:59;;;;;;;13.10;11.90;;;3.60;99.90;;;;;;5074320;28;20463;-69
2020/12/26 01:11:25;;;;;;;14.40;10.83;;;3.60;99.90;;;;;;5073837;28;20948;-68
2020/12/26 01:13:52;;;;;;;12.67;11.37;;;3.70;99.90;;;;;;5074117;28;20474;-68
2020/12/26 01:16:18;;;;;;;13.57;12.17;;;3.70;99.90;;;;;;5074283;28;20454;-67
2020/12/26 01:18:44;;;;;;;12.80;11.23;;;3.70;99.90;;;;;;5074095;28;21049;-66
2020/12/26 01:21:14;;;;;;;13.23;11.77;;;3.60;99.90;;;;;;5073903;28;20581;-67
2020/12/26 01:23:41;;;;;;;12.73;11.43;;;3.60;99.90;;;;;;5074071;28;20449;-65
2020/12/26 01:26:08;;;;;;;12.57;11.47;;;3.60;99.90;;;;;;5074057;28;20844;-66
2020/12/26 01:28:34;;;;;;;13.77;12.37;;;3.60;99.90;;;;;;5074019;28;20681;-67
2020/12/26 01:31:00;;;;;;;19.33;11.87;;;3.50;99.90;;;;;;5073725;28;20823;-66
2020/12/26 01:33:27;;;;;;;25.00;13.50;;;3.60;99.90;;;;;;5073908;28;20497;-66
2020/12/26 01:35:53;;;;;;;13.90;12.50;;;3.60;99.90;;;;;;5073492;28;20478;-66
2020/12/26 01:38:20;;;;;;;19.13;11.80;;;3.60;99.90;;;;;;5073772;28;20474;-66
2020/12/26 01:40:50;;;;;;;13.00;11.70;;;3.60;99.90;;;;;;5073511;28;20504;-66
2020/12/26 01:43:17;;;;;;;12.67;11.50;;;3.60;99.90;;;;;;5073841;28;20454;-67
2020/12/26 01:45:43;;;;;;;13.00;11.63;;;3.60;99.90;;;;;;5073660;28;20439;-67
2020/12/26 01:48:15;;;;;;;14.00;12.70;;;3.60;99.90;;;;;;5073469;28;20471;-66
2020/12/26 01:50:42;;;;;;;12.33;10.77;;;3.60;99.90;;;;;;5073445;28;20439;-66
2020/12/26 01:53:10;;;;;;;12.80;11.70;;;3.60;99.90;;;;;;5073548;28;20444;-66
2020/12/26 01:55:37;;;;;;;14.70;12.57;;;3.60;99.90;;;;;;5073403;28;20501;-67
2020/12/26 01:58:04;;;;;;;12.60;11.40;;;3.60;99.90;;;;;;5073209;28;20855;-66
2020/12/26 02:00:30;;;;;;;14.53;13.13;;;3.60;99.90;;;;;;5073114;28;20448;-66
2020/12/26 02:02:57;;;;;;;19.57;14.83;;;3.50;99.90;;;;;;5073309;28;20447;-66
2020/12/26 02:05:23;;;;;;;13.07;11.70;;;3.50;99.90;;;;;;5073317;28;20435;-67
2020/12/26 02:07:49;;;;;;;14.60;13.10;;;3.50;99.90;;;;;;5073045;28;20962;-67
2020/12/26 02:10:16;;;;;;;16.40;12.60;;;3.50;99.90;;;;;;5073032;28;20450;-67
2020/12/26 02:12:43;;;;;;;14.13;12.63;;;3.50;99.90;;;;;;5073193;28;20500;-67
2020/12/26 02:15:13;;;;;;;12.97;11.67;;;3.50;99.90;;;;;;5072831;28;20485;-67
2020/12/26 02:17:39;;;;;;;13.63;12.27;;;3.50;99.90;;;;;;5073013;28;21060;-67
2020/12/26 02:20:06;;;;;;;14.17;12.77;;;3.50;99.90;;;;;;5072697;28;20447;-67
2020/12/26 02:22:32;;;;;;;18.43;13.40;;;3.50;99.90;;;;;;5072505;28;20443;-67
2020/12/26 02:25:00;;;;;;;14.17;12.80;;;3.50;99.90;;;;;;5072528;28;20997;-67
2020/12/26 02:27:26;;;;;;;14.20;12.80;;;3.50;99.90;;;;;;5072781;28;20467;-67
2020/12/26 02:29:52;;;;;;;14.97;13.23;;;3.50;99.90;;;;;;5072598;28;20458;-67
2020/12/26 02:32:18;;;;;;;14.10;12.80;;;3.60;99.90;;;;;;5072832;28;20435;-67
2020/12/26 02:34:45;;;;;;;17.33;15.00;;;3.60;99.90;;;;;;5072612;28;20479;-66
2020/12/26 02:37:11;;;;;;;16.63;14.90;;;3.50;99.90;;;;;;5072533;28;20520;-67
2020/12/26 02:39:37;;;;;;;15.03;13.57;;;3.50;99.90;;;;;;5072571;28;20455;-66
2020/12/26 02:42:04;;;;;;;14.83;12.93;;;3.50;99.90;;;;;;5072429;28;20967;-67
2020/12/26 02:44:30;;;;;;;15.20;13.83;;;3.50;99.90;;;;;;5072550;28;20454;-67
2020/12/26 02:46:57;;;;;;;14.80;13.37;;;3.60;99.90;;;;;;5072474;28;20520;-66
2020/12/26 02:49:23;;;;;;;16.03;14.57;;;3.60;99.90;;;;;;5072380;28;20466;-65
2020/12/26 02:51:49;;;;;;;16.87;15.37;;;3.50;99.90;;;;;;5072192;28;20448;-66
2020/12/26 02:54:16;;;;;;;18.27;13.17;;;3.60;99.90;;;;;;5072439;28;20478;-66
2020/12/26 02:56:42;;;;;;;15.60;12.43;;;3.60;99.90;;;;;;5072102;28;20444;-68
2020/12/26 02:59:09;;;;;;;15.17;13.77;;;3.60;99.90;;;;;;5072743;28;20439;-69
2020/12/26 03:01:39;;;;;;;15.13;13.63;;;3.60;99.90;;;;;;5072024;28;20932;-68
2020/12/26 03:04:05;;;;;;;16.70;14.83;;;3.60;99.90;;;;;;5072089;28;20469;-69
2020/12/26 03:06:32;;;;;;;18.73;15.37;;;3.60;99.90;;;;;;5072125;28;20447;-67
2020/12/26 03:08:58;;;;;;;16.60;15.03;;;3.60;99.90;;;;;;5071929;28;20465;-67
2020/12/26 03:11:24;;;;;;;15.53;14.03;;;3.60;99.90;;;;;;5071903;28;20439;-67
2020/12/26 03:13:51;;;;;;;15.67;14.07;;;3.60;99.90;;;;;;5071923;28;20439;-67
2020/12/26 03:16:18;;;;;;;19.63;15.97;;;3.60;99.90;;;;;;5071973;28;20451;-69
2020/12/26 03:18:45;;;;;;;17.00;15.23;;;3.60;99.90;;;;;;5071868;28;20466;-68
2020/12/26 03:21:11;;;;;;;17.93;16.20;;;3.70;99.90;;;;;;5071669;28;20512;-68
2020/12/26 03:23:37;;;;;;;17.63;15.97;;;3.70;99.90;;;;;;5071846;28;20435;-69
2020/12/26 03:26:03;;;;;;;19.70;16.60;;;3.70;99.90;;;;;;5071894;28;20414;-68
2020/12/26 03:28:30;;;;;;;20.23;18.27;;;3.70;99.90;;;;;;5071763;28;20835;-67
2020/12/26 03:30:56;;;;;;;17.67;15.87;;;3.70;99.90;;;;;;5071569;28;20492;-66
2020/12/26 03:33:23;;;;;;;19.13;17.20;;;3.80;99.90;;;;;;5071870;28;20439;-66
2020/12/26 03:35:49;;;;;;;19.37;17.40;;;3.80;99.90;;;;;;5071640;28;20817;-67
2020/12/26 03:38:15;;;;;;;18.83;17.07;;;3.80;99.90;;;;;;5071682;28;20550;-66
2020/12/26 03:40:42;;;;;;;17.93;16.23;;;3.80;99.90;;;;;;5071562;28;20439;-67
2020/12/26 03:43:08;;;;;;;23.13;18.57;;;3.80;99.90;;;;;;5071547;28;20443;-66
2020/12/26 03:45:34;;;;;;;18.63;16.77;;;3.80;99.90;;;;;;5071777;28;20435;-67
2020/12/26 03:48:00;;;;;;;20.87;16.27;;;3.80;99.90;;;;;;5071515;28;20455;-67
2020/12/26 03:50:27;;;;;;;21.80;17.53;;;3.80;99.90;;;;;;5071319;28;20445;-66
2020/12/26 03:52:54;;;;;;;17.83;16.00;;;3.80;99.90;;;;;;5071648;28;20447;-67
2020/12/26 03:55:20;;;;;;;18.40;16.50;;;3.80;99.90;;;;;;5071529;28;20483;-66
2020/12/26 03:57:46;;;;;;;28.73;17.30;;;3.80;99.90;;;;;;5071325;28;20471;-66
2020/12/26 04:00:12;;;;;;;17.83;15.97;;;3.80;99.90;;;;;;5071369;28;20459;-67
2020/12/26 04:02:39;;;;;;;20.13;16.63;;;3.80;99.90;;;;;;5071463;28;20450;-66
2020/12/26 04:05:05;;;;;;;18.10;16.30;;;3.80;99.90;;;;;;5071433;28;21288;-66
2020/12/26 04:07:32;;;;;;;17.97;16.07;;;3.80;99.90;;;;;;5071452;28;20460;-66
2020/12/26 04:09:58;;;;;;;20.70;17.70;;;3.80;99.90;;;;;;5071205;28;20446;-66
2020/12/26 04:12:24;;;;;;;17.60;15.90;;;3.90;99.90;;;;;;5071308;28;20439;-66
2020/12/26 04:14:51;;;;;;;18.87;16.97;;;3.90;99.90;;;;;;5071331;28;20506;-66
2020/12/26 04:17:17;;;;;;;18.40;16.70;;;3.90;99.90;;;;;;5071232;28;20471;-67
2020/12/26 04:19:43;;;;;;;17.60;15.80;;;3.90;99.90;;;;;;5071175;28;20438;-67
2020/12/26 04:22:09;;;;;;;17.67;16.00;;;3.90;99.90;;;;;;5071267;28;20941;-67
2020/12/26 04:24:36;;;;;;;17.90;16.27;;;3.90;99.90;;;;;;5071257;28;20439;-67
2020/12/26 04:27:03;;;;;;;17.67;15.97;;;3.90;99.90;;;;;;5071162;28;20878;-67
2020/12/26 04:29:29;;;;;;;19.47;17.13;;;3.90;99.90;;;;;;5071272;28;20439;-67
2020/12/26 04:31:55;;;;;;;18.27;16.53;;;4.00;99.90;;;;;;5070973;28;20466;-67
2020/12/26 04:34:21;;;;;;;22.87;16.47;;;4.00;99.90;;;;;;5071180;28;20870;-66
2020/12/26 04:36:48;;;;;;;17.10;15.50;;;4.00;99.90;;;;;;5071038;28;20931;-66
2020/12/26 04:39:14;;;;;;;16.80;15.07;;;4.00;99.90;;;;;;5071169;28;20469;-66
2020/12/26 04:41:41;;;;;;;18.93;17.00;;;4.00;99.90;;;;;;5070881;28;20443;-65
2020/12/26 04:44:10;;;;;;;16.43;14.83;;;4.10;99.90;;;;;;5071285;28;20454;-66
2020/12/26 04:46:39;;;;;;;23.07;15.07;;;4.00;99.90;;;;;;5072189;28;20454;-65
2020/12/26 04:49:07;;;;;;;20.37;15.70;;;4.00;99.90;;;;;;5074706;28;20450;-69
2020/12/26 04:51:35;;;;;;;18.40;16.53;;;4.00;99.90;;;;;;5074477;28;20462;-69
2020/12/26 04:54:11;;;;;;;17.93;16.13;;;4.00;99.90;;;;;;5074625;28;20530;-68
2020/12/26 04:56:43;;;;;;;18.13;16.33;;;4.00;99.90;;;;;;5074370;28;20445;-68
2020/12/26 04:59:11;;;;;;;18.87;17.17;;;4.00;99.90;;;;;;5074485;28;20447;-67
2020/12/26 05:01:40;;;;;;;18.80;16.90;;;4.00;99.90;;;;;;5074534;28;20446;-66
2020/12/26 05:04:07;;;;;;;19.37;17.37;;;4.00;99.90;;;;;;5074593;28;20467;-66
2020/12/26 05:06:48;;;;;;;20.77;17.97;;;4.00;99.90;;;;;;5074527;28;20450;-66
2020/12/26 05:09:16;;;;;;;18.83;16.30;;;4.10;99.90;;;;;;5074352;28;20479;-67
2020/12/26 05:11:50;;;;;;;19.43;17.43;;;4.10;99.90;;;;;;5074036;28;20505;-67
2020/12/26 05:14:17;;;;;;;19.50;17.50;;;4.10;99.90;;;;;;5074332;28;20478;-67
2020/12/26 05:16:44;;;;;;;20.07;18.10;;;4.10;99.90;;;;;;5074178;28;20448;-67
2020/12/26 05:19:11;;;;;;;21.40;17.83;;;4.20;99.90;;;;;;5074150;28;20439;-67
2020/12/26 05:21:37;;;;;;;20.03;18.13;;;4.10;99.90;;;;;;5074086;28;20443;-66
2020/12/26 05:24:05;;;;;;;19.63;17.60;;;4.20;99.90;;;;;;5074050;28;20500;-66
2020/12/26 05:26:38;;;;;;;21.03;18.80;;;4.20;99.90;;;;;;5073981;28;20454;-67
2020/12/26 05:29:05;;;;;;;20.70;18.70;;;4.10;99.90;;;;;;5073945;28;20435;-66
2020/12/26 05:31:46;;;;;;;21.17;19.03;;;4.10;99.90;;;;;;5073631;28;20505;-67
2020/12/26 05:34:12;;;;;;;20.80;18.63;;;4.00;99.90;;;;;;5073930;28;20443;-66
2020/12/26 05:36:39;;;;;;;22.17;19.87;;;3.90;99.90;;;;;;5073873;28;20507;-66
2020/12/26 05:39:06;;;;;;;25.73;23.13;;;3.80;99.90;;;;;;5073757;28;20450;-66
2020/12/26 05:41:32;;;;;;;23.00;20.50;;;3.80;99.90;;;;;;5073698;28;20443;-66
2020/12/26 05:43:59;;;;;;;24.17;21.83;;;3.70;99.90;;;;;;5073861;28;20443;-66
2020/12/26 05:46:26;;;;;;;25.23;22.53;;;3.60;99.90;;;;;;5073620;28;20439;-66
2020/12/26 05:48:52;;;;;;;27.20;22.63;;;3.60;99.90;;;;;;5073669;28;20469;-65
2020/12/26 05:51:24;;;;;;;27.20;24.33;;;3.60;99.90;;;;;;5073367;28;20936;-66
2020/12/26 05:53:51;;;;;;;25.87;21.40;;;3.60;99.90;;;;;;5073469;28;20861;-66
2020/12/26 05:56:19;;;;;;;26.63;23.57;;;3.60;99.90;;;;;;5073562;28;20470;-66
2020/12/26 05:58:45;;;;;;;26.70;22.87;;;3.60;99.90;;;;;;5072122;28;20498;-66
2020/12/26 06:01:11;;;;;;;27.20;21.60;;;3.60;99.90;;;;;;5073192;28;20805;-67
2020/12/26 06:03:40;;;;;;;27.63;21.47;;;3.60;99.90;;;;;;5073320;28;20443;-65
2020/12/26 06:06:07;;;;;;;28.27;23.50;;;3.60;99.90;;;;;;5073213;28;20450;-66
2020/12/26 06:08:33;;;;;;;27.17;24.37;;;3.60;99.90;;;;;;5073252;28;20463;-68
2020/12/26 06:11:01;;;;;;;26.70;22.50;;;3.60;99.90;;;;;;5073105;28;20444;-68
2020/12/26 06:13:28;;;;;;;28.10;25.10;;;3.70;99.90;;;;;;5073051;28;20443;-67
2020/12/26 06:15:57;;;;;;;28.20;24.20;;;3.60;99.90;;;;;;5073061;28;20480;-67
2020/12/26 06:18:24;;;;;;;26.30;23.20;;;3.70;99.90;;;;;;5073021;28;20470;-67
2020/12/26 06:20:54;;;;;;;26.60;23.70;;;3.70;99.90;;;;;;5072485;28;20823;-65
2020/12/26 06:23:22;;;;;;;30.93;25.30;;;3.70;99.90;;;;;;5072920;28;20497;-65
2020/12/26 06:25:50;;;;;;;26.50;23.03;;;3.70;99.90;;;;;;5071951;28;20989;-67
2020/12/26 06:28:27;;;;;;;26.70;23.63;;;3.70;99.90;;;;;;5072651;28;21137;-66
2020/12/26 06:30:56;;;;;;;30.40;23.77;;;3.80;99.90;;;;;;5072395;28;20515;-67
2020/12/26 06:33:25;;;;;;;32.57;25.50;;;3.70;99.90;;;;;;5072614;28;20440;-66
2020/12/26 06:35:53;;;;;;;31.20;24.23;;;3.70;99.90;;;;;;5072855;28;20476;-67
2020/12/26 06:38:24;;;;;;;30.70;23.87;;;3.70;99.90;;;;;;5072328;28;20521;-67
2020/12/26 06:40:52;;;;;;;28.00;24.97;;;3.60;99.90;;;;;;5072028;28;20448;-67
2020/12/26 06:43:58;;;;;;;28.23;25.20;;;3.60;99.90;;;;;;5072264;28;20446;-67
2020/12/26 06:46:42;;;;;;;30.90;25.73;;;3.50;99.90;;;;;;5072337;28;20450;-66
2020/12/26 06:49:25;;;;;;;34.37;26.37;;;3.50;99.90;;;;;;5072533;28;20450;-66
2020/12/26 06:51:53;;;;;;;30.57;25.73;;;3.40;99.90;;;;;;5072186;28;20441;-66
2020/12/26 06:54:45;;;;;;;30.90;25.20;;;3.30;99.90;;;;;;5072102;28;20444;-66
2020/12/26 06:57:35;;;;;;;37.13;24.93;;;3.30;99.90;;;;;;5071983;28;20507;-66
2020/12/26 07:00:03;;;;;;;28.70;24.30;;;3.20;99.90;;;;;;5071895;28;20435;-66
2020/12/26 07:02:29;;;;;;;30.03;26.67;;;3.20;99.90;;;;;;5072212;28;20849;-67
2020/12/26 07:04:56;;;;;;;33.23;26.73;;;3.10;99.90;;;;;;5072145;28;20970;-66
2020/12/26 07:07:38;;;;;;;35.17;30.00;;;3.10;99.90;;;;;;5071917;28;20456;-67
2020/12/26 07:10:04;;;;;;;36.03;27.10;;;3.00;99.90;;;;;;5071511;28;20439;-66
2020/12/26 07:12:42;;;;;;;30.97;23.80;;;3.00;99.90;;;;;;5071909;28;20439;-67
2020/12/26 07:15:08;;;;;;;38.13;28.50;;;2.90;99.90;;;;;;5071892;28;20565;-67
2020/12/26 07:17:35;;;;;;;35.37;26.50;;;2.90;99.90;;;;;;5071846;28;20844;-67
2020/12/26 07:20:01;;;;;;;35.77;27.83;;;2.90;99.90;;;;;;5071519;28;20451;-66
2020/12/26 07:22:29;;;;;;;35.37;25.40;;;2.80;99.90;;;;;;5071990;28;20573;-66
2020/12/26 07:25:02;;;;;;;32.47;26.23;;;2.80;99.90;;;;;;5071858;28;20975;-65
2020/12/26 07:27:30;;;;;;;32.50;25.93;;;2.70;99.90;;;;;;5071679;28;20474;-67
2020/12/26 07:30:07;;;;;;;36.43;26.43;;;2.70;99.90;;;;;;5072167;28;20443;-68
2020/12/26 07:32:50;;;;;;;35.63;26.10;;;2.70;99.90;;;;;;5071728;28;20438;-67
2020/12/26 07:35:36;;;;;;;34.97;25.80;;;2.70;99.90;;;;;;5071663;28;20565;-67
2020/12/26 07:38:07;;;;;;;32.93;26.37;;;2.70;99.90;;;;;;5071707;28;20472;-67
2020/12/26 07:40:36;;;;;;;28.27;23.73;;;2.70;99.90;;;;;;5071336;28;20440;-66
2020/12/26 07:43:04;;;;;;;30.23;23.20;;;2.70;99.90;;;;;;5071767;28;20933;-67
2020/12/26 07:45:31;;;;;;;30.67;23.93;;;2.70;99.90;;;;;;5071495;28;20723;-68
2020/12/26 07:47:59;;;;;;;31.40;22.20;;;2.70;99.90;;;;;;5071447;28;20992;-67
2020/12/26 07:50:27;;;;;;;29.00;23.57;;;2.70;99.90;;;;;;5071263;28;20450;-67
2020/12/26 07:52:55;;;;;;;26.23;23.10;;;2.60;99.90;;;;;;5071522;28;20870;-68
2020/12/26 07:55:22;;;;;;;32.60;22.40;;;2.60;99.90;;;;;;5071367;28;20478;-66
2020/12/26 07:58:00;;;;;;;24.23;21.60;;;2.60;99.90;;;;;;5071376;28;20475;-66
2020/12/26 08:00:28;;;;;;;26.10;20.13;;;2.60;99.90;;;;;;5071267;28;20559;-66
2020/12/26 08:02:56;;;;;;;24.27;21.23;;;2.70;99.90;;;;;;5071433;28;20523;-66
2020/12/26 08:05:24;;;;;;;28.90;21.70;;;2.60;99.90;;;;;;5071422;28;20439;-67
2020/12/26 08:07:51;;;;;;;26.83;21.70;;;2.70;99.90;;;;;;5071434;28;20813;-65
2020/12/26 08:10:18;;;;;;;24.53;20.50;;;2.70;99.90;;;;;;5071352;28;20547;-67
2020/12/26 08:12:54;;;;;;;25.10;19.73;;;2.70;99.90;;;;;;5071202;28;20486;-65
2020/12/26 08:15:25;;;;;;;22.00;18.77;;;2.80;99.90;;;;;;5071344;28;20561;-65
2020/12/26 08:17:54;;;;;;;24.67;19.23;;;2.80;99.90;;;;;;5071519;28;20466;-66
2020/12/26 08:20:22;;;;;;;30.70;19.27;;;2.80;99.90;;;;;;5071019;28;20447;-65
2020/12/26 08:22:48;;;;;;;20.50;17.63;;;2.80;99.90;;;;;;5074485;28;20447;-65
2020/12/26 08:25:16;;;;;;;24.13;21.30;;;2.90;99.90;;;;;;5075119;28;20449;-65
2020/12/26 08:27:43;;;;;;;19.43;17.13;;;2.90;99.90;;;;;;5074695;28;20467;-65
2020/12/26 08:30:12;;;;;;;23.10;16.73;;;3.00;99.90;;;;;;5074888;28;20858;-65
2020/12/26 08:32:53;;;;;;;23.37;16.90;;;3.00;99.90;;;;;;5074815;28;20443;-66
2020/12/26 08:35:21;;;;;;;21.43;16.33;;;3.10;99.90;;;;;;5074894;28;20478;-65
2020/12/26 08:37:56;;;;;;;22.80;15.33;;;3.10;99.90;;;;;;5074433;28;20467;-66
2020/12/26 08:40:23;;;;;;;19.03;16.33;;;3.20;99.90;;;;;;5074707;28;20449;-66
2020/12/26 08:42:49;;;;;;;19.50;15.63;;;3.20;99.90;;;;;;5074715;28;20447;-66
2020/12/26 08:45:31;;;;;;;18.90;15.17;;;3.30;99.90;;;;;;5074584;28;20808;-66
2020/12/26 08:48:15;;;;;;;22.90;15.60;;;3.30;99.90;;;;;;5074570;28;20467;-66
2020/12/26 08:51:00;;;;;;;19.87;16.10;;;3.40;99.90;;;;;;5074408;28;20488;-66
2020/12/26 08:53:26;;;;;;;19.60;15.40;;;3.50;99.90;;;;;;5074546;28;20521;-66
2020/12/26 08:55:54;;;;;;;17.23;14.50;;;3.60;99.90;;;;;;5074015;28;20486;-66
2020/12/26 08:58:28;;;;;;;17.80;13.63;;;3.60;99.90;;;;;;5074688;28;20906;-66
2020/12/26 09:00:57;;;;;;;18.50;12.27;;;3.70;99.90;;;;;;5074244;28;20439;-66
2020/12/26 09:03:25;;;;;;;15.57;14.07;;;3.70;99.90;;;;;;5074438;28;20488;-65
2020/12/26 09:05:53;;;;;;;13.80;12.00;;;3.80;99.90;;;;;;5074434;28;20959;-65
2020/12/26 09:08:19;;;;;;;15.60;11.83;;;4.00;99.90;;;;;;5074259;28;20551;-67
2020/12/26 09:10:59;;;;;;;13.13;11.73;;;4.20;99.90;;;;;;5074068;28;20435;-66
2020/12/26 09:13:34;;;;;;;14.27;12.33;;;4.40;99.90;;;;;;5074361;28;20435;-65
2020/12/26 09:16:07;;;;;;;14.20;11.07;;;4.50;99.90;;;;;;5074116;28;20478;-65
2020/12/26 09:18:41;;;;;;;14.60;12.67;;;4.70;99.90;;;;;;5074108;28;20463;-67
2020/12/26 09:21:08;;;;;;;14.20;13.00;;;4.80;99.90;;;;;;5073604;28;20443;-66
2020/12/26 09:23:37;;;;;;;15.90;12.67;;;5.00;99.90;;;;;;5073848;28;20446;-67
2020/12/26 09:26:14;;;;;;;14.57;13.17;;;5.20;99.90;;;;;;5073872;28;20553;-68
2020/12/26 09:28:45;;;;;;;13.50;12.40;;;5.30;99.90;;;;;;5073913;28;20486;-68
2020/12/26 09:31:13;;;;;;;13.23;11.90;;;5.40;99.90;;;;;;5073445;28;20473;-67
2020/12/26 09:33:39;;;;;;;13.67;12.77;;;5.50;99.90;;;;;;5073575;28;20444;-67
2020/12/26 09:36:09;;;;;;;13.00;12.13;;;5.50;99.90;;;;;;5073799;28;20863;-66
2020/12/26 09:38:35;;;;;;;15.27;13.87;;;5.40;99.90;;;;;;5074562;28;20459;-67
2020/12/26 09:41:10;;;;;;;14.73;13.53;;;5.50;99.90;;;;;;5073775;28;20478;-66
2020/12/26 09:43:36;;;;;;;15.17;13.83;;;5.60;99.90;;;;;;5073860;28;20446;-66
2020/12/26 09:46:02;;;;;;;13.80;12.60;;;5.70;99.90;;;;;;5073758;28;20447;-68
2020/12/26 09:48:30;;;;;;;13.53;12.67;;;5.90;99.90;;;;;;5073292;28;20461;-68
2020/12/26 09:50:56;;;;;;;14.50;13.33;;;6.00;99.90;;;;;;5073376;28;20507;-66
2020/12/26 09:53:22;;;;;;;15.97;14.60;;;6.10;99.90;;;;;;5073393;28;20455;-67
2020/12/26 09:55:49;;;;;;;14.20;13.10;;;6.10;99.90;;;;;;5073353;28;20490;-67
2020/12/26 09:58:15;;;;;;;14.97;13.77;;;5.90;99.90;;;;;;5073195;28;20509;-67
2020/12/26 10:00:41;;;;;;;15.17;14.00;;;5.80;99.90;;;;;;5073152;28;20447;-67
2020/12/26 10:03:07;;;;;;;14.13;13.10;;;5.70;99.90;;;;;;5073301;28;20807;-67
2020/12/26 10:05:35;;;;;;;14.17;13.27;;;5.70;99.90;;;;;;5073153;28;21011;-66
2020/12/26 10:08:01;;;;;;;14.60;13.60;;;5.70;99.90;;;;;;5073258;28;20524;-68
2020/12/26 10:10:27;;;;;;;14.23;13.20;;;5.60;99.90;;;;;;5072886;28;20469;-67
2020/12/26 10:12:53;;;;;;;14.80;13.53;;;5.60;99.90;;;;;;5072838;28;20465;-67
2020/12/26 10:15:20;;;;;;;14.40;13.30;;;5.80;99.90;;;;;;5073193;28;20478;-67
2020/12/26 10:17:46;;;;;;;14.40;13.43;;;5.80;99.90;;;;;;5072879;28;21007;-67
2020/12/26 10:20:12;;;;;;;13.30;12.30;;;5.80;99.90;;;;;;5072695;28;20442;-66
2020/12/26 10:22:39;;;;;;;14.30;12.80;;;5.80;99.90;;;;;;5072665;28;20444;-67
2020/12/26 10:25:06;;;;;;;13.13;12.33;;;5.80;99.90;;;;;;5072946;28;20439;-67
2020/12/26 10:27:32;;;;;;;13.23;12.30;;;6.00;99.90;;;;;;5072931;28;20465;-67
2020/12/26 10:29:58;;;;;;;13.23;12.43;;;6.00;99.90;;;;;;5072602;28;20436;-66
2020/12/26 10:32:24;;;;;;;13.60;12.50;;;6.20;99.90;;;;;;5072744;28;20816;-67
2020/12/26 10:34:51;;;;;;;12.23;11.23;;;6.40;99.90;;;;;;5072741;28;20844;-68
2020/12/26 10:37:19;;;;;;;13.03;12.23;;;6.60;99.90;;;;;;5072844;28;20463;-65
2020/12/26 10:39:47;;;;;;;13.50;12.60;;;6.90;99.90;;;;;;5072527;28;20447;-67
2020/12/26 10:42:13;;;;;;;14.70;13.30;;;7.00;99.90;;;;;;5072733;28;20443;-67
2020/12/26 10:44:39;;;;;;;14.47;13.53;;;7.10;99.90;;;;;;5071955;28;20439;-67
2020/12/26 10:47:06;;;;;;;14.80;14.00;;;7.30;99.90;;;;;;5072840;28;20459;-67
2020/12/26 10:49:32;;;;;;;13.43;12.63;;;7.40;99.90;;;;;;5072317;28;20451;-68
2020/12/26 10:51:58;;;;;;;14.80;13.60;;;7.40;99.90;;;;;;5072198;28;20501;-67
2020/12/26 10:54:28;;;;;;;14.07;13.23;;;7.40;99.90;;;;;;5072351;28;20461;-69
2020/12/26 10:56:55;;;;;;;15.07;14.07;;;7.40;99.90;;;;;;5073051;28;20435;-67
2020/12/26 10:59:21;;;;;;;15.57;14.67;;;7.60;99.90;;;;;;5072159;28;20435;-68
2020/12/26 11:01:47;;;;;;;14.67;14.07;;;7.80;99.90;;;;;;5071986;28;20450;-66
2020/12/26 11:04:14;;;;;;;15.00;14.20;;;7.80;99.90;;;;;;5072401;28;20438;-68
2020/12/26 11:06:40;;;;;;;15.27;14.47;;;8.00;99.90;;;;;;5072144;28;20435;-67
2020/12/26 11:09:06;;;;;;;15.47;14.67;;;8.00;99.60;;;;;;5071940;28;20446;-67
2020/12/26 11:11:33;;;;;;;15.40;14.70;;;8.40;99.60;;;;;;5072064;28;20443;-67
2020/12/26 11:14:00;;;;;;;15.50;14.27;;;8.40;97.80;;;;;;5071786;28;20520;-69
2020/12/26 11:16:27;;;;;;;15.90;15.00;;;8.70;97.40;;;;;;5071795;28;20479;-67
2020/12/26 11:18:53;;;;;;;16.00;14.50;;;8.80;96.10;;;;;;5071805;28;20459;-67
2020/12/26 11:21:20;;;;;;;16.00;15.30;;;9.00;95.60;;;;;;5071840;28;20500;-67
2020/12/26 11:23:47;;;;;;;16.20;15.40;;;9.70;94.70;;;;;;5071673;28;20449;-68
2020/12/26 11:26:14;;;;;;;16.97;16.17;;;10.00;91.50;;;;;;5071898;28;20435;-67
2020/12/26 11:28:40;;;;;;;16.83;16.13;;;10.50;89.70;;;;;;5071909;28;20464;-69
2020/12/26 11:31:07;;;;;;;16.33;15.63;;;10.80;84.00;;;;;;5071612;28;20439;-68
2020/12/26 11:33:37;;;;;;;16.50;15.90;;;10.10;79.90;;;;;;5071677;28;20447;-69
2020/12/26 11:36:03;;;;;;;16.03;15.03;;;10.80;81.50;;;;;;5071682;28;20475;-66
2020/12/26 11:38:29;;;;;;;16.87;15.87;;;11.30;78.80;;;;;;5071549;28;20467;-69
2020/12/26 11:40:56;;;;;;;16.50;15.80;;;11.20;74.00;;;;;;5071426;28;20469;-68
2020/12/26 11:43:22;;;;;;;17.57;16.80;;;11.00;72.80;;;;;;5071555;28;20447;-68
2020/12/26 11:45:49;;;;;;;16.50;15.77;;;11.20;71.90;;;;;;5071207;28;20474;-68
2020/12/26 11:48:16;;;;;;;18.23;17.07;;;11.20;70.70;;;;;;5071375;28;20459;-68
2020/12/26 11:50:42;;;;;;;16.17;15.50;;;10.90;72.50;;;;;;5071373;28;20450;-67
2020/12/26 11:53:08;;;;;;;16.40;15.70;;;10.90;71.50;;;;;;5071558;28;20481;-68
2020/12/26 11:55:35;;;;;;;15.70;15.10;;;10.40;72.20;;;;;;5071530;28;20537;-67
2020/12/26 11:58:01;;;;;;;15.50;14.90;;;9.70;74.50;;;;;;5071233;28;20853;-67
2020/12/26 12:00:27;;;;;;;15.60;15.00;;;9.60;77.40;;;;;;5071206;28;20444;-67
2020/12/26 12:02:53;;;;;;;16.93;16.03;;;9.40;78.90;;;;;;5071432;28;20442;-66
2020/12/26 12:05:20;;;;;;;15.67;14.87;;;9.40;80.10;;;;;;5071543;28;20443;-68
2020/12/26 12:07:47;;;;;;;15.67;14.83;;;9.30;81.60;;;;;;5071145;28;20459;-67
2020/12/26 12:10:13;;;;;;;15.30;14.70;;;9.50;82.10;;;;;;5071019;28;20435;-66
2020/12/26 12:12:39;;;;;;;15.83;15.10;;;9.30;82.40;;;;;;5071398;28;20641;-66
2020/12/26 12:15:05;;;;;;;16.50;15.80;;;9.00;84.10;;;;;;5071178;28;20498;-66
2020/12/26 12:17:32;;;;;;;15.43;14.83;;;8.70;86.20;;;;;;5070869;28;20464;-69
2020/12/26 12:19:58;;;;;;;16.00;15.20;;;8.70;88.00;;;;;;5070363;28;20442;-69
2020/12/26 12:22:25;;;;;;;15.67;15.07;;;8.60;90.10;;;;;;5051078;28;20964;-67
2020/12/26 12:24:51;;;;;;;16.97;15.93;;;8.70;90.60;;;;;;5051066;28;20444;-67
2020/12/26 12:27:18;;;;;;;17.13;16.23;;;9.40;90.70;;;;;;5051031;28;20467;-67
2020/12/26 12:29:44;;;;;;;16.33;15.53;;;10.40;85.30;;;;;;5050889;28;20782;-68
2020/12/26 12:32:14;;;;;;;17.27;16.30;;;10.40;81.20;;;;;;5050972;28;20440;-67
2020/12/26 12:34:40;;;;;;;17.87;16.93;;;10.10;80.50;;;;;;5050987;28;20517;-67
2020/12/26 12:37:08;;;;;;;16.40;15.60;;;9.40;83.90;;;;;;5050978;28;20487;-67
2020/12/26 12:39:35;;;;;;;18.03;16.87;;;9.30;86.70;;;;;;5051031;28;20447;-67